createdAt,value
2022-11-05T00:03:37.431Z,22.93
2022-11-05T00:08:48.981Z,26.30
2022-11-05T00:13:58.131Z,27.00
2022-11-05T00:19:06.599Z,23.07
2022-11-05T00:24:23.217Z,26.17
2022-11-05T00:29:16.767Z,24.43
2022-11-05T00:34:09.538Z,23.57
2022-11-05T00:39:03.529Z,25.10
2022-11-05T00:44:22.203Z,27.47
2022-11-05T00:49:32.660Z,24.87
2022-11-05T00:54:26.588Z,24.93
2022-11-05T00:59:19.193Z,24.40
2022-11-05T01:04:12.002Z,23.30
2022-11-05T01:09:04.677Z,20.23
2022-11-05T01:13:58.589Z,20.37
2022-11-05T01:18:51.208Z,20.87
2022-11-05T01:23:44.045Z,18.53
2022-11-05T01:28:36.872Z,20.23
2022-11-05T01:33:30.875Z,20.07
2022-11-05T01:38:23.462Z,19.80
2022-11-05T01:43:17.519Z,17.77
2022-11-05T01:48:13.828Z,20.30
2022-11-05T01:53:11.225Z,19.37
2022-11-05T01:58:04.484Z,18.77
2022-11-05T02:02:57.177Z,18.77
2022-11-05T02:07:50.060Z,19.60
2022-11-05T02:12:45.563Z,17.47
2022-11-05T02:17:44.723Z,19.83
2022-11-05T02:22:45.834Z,20.17
2022-11-05T02:27:59.282Z,17.87
2022-11-05T02:33:02.048Z,19.00
2022-11-05T02:37:55.965Z,18.23
2022-11-05T02:42:55.624Z,21.97
2022-11-05T02:47:51.305Z,16.53
2022-11-05T02:52:50.522Z,16.63
2022-11-05T02:57:45.048Z,18.27
2022-11-05T03:02:37.839Z,22.53
2022-11-05T03:07:40.509Z,17.07
2022-11-05T03:12:40.925Z,21.43
2022-11-05T03:17:37.878Z,18.90
2022-11-05T03:22:33.871Z,19.80
2022-11-05T03:27:28.202Z,20.07
2022-11-05T03:32:28.252Z,17.83
2022-11-05T03:37:22.623Z,21.40
2022-11-05T03:42:16.955Z,23.83
2022-11-05T03:47:12.334Z,21.50
2022-11-05T03:52:08.402Z,28.13
2022-11-05T03:57:04.347Z,23.00
2022-11-05T04:01:57.508Z,22.90
2022-11-05T04:07:07.561Z,29.53
2022-11-05T04:12:19.073Z,30.90
2022-11-05T04:17:11.645Z,28.30
2022-11-05T04:22:21.794Z,31.50
2022-11-05T04:27:15.698Z,34.00
2022-11-05T04:32:08.288Z,41.57
2022-11-05T04:37:00.857Z,45.80
2022-11-05T04:41:53.455Z,40.80
2022-11-05T04:46:47.382Z,42.97
2022-11-05T04:51:39.953Z,49.07
2022-11-05T04:56:32.628Z,50.93
2022-11-05T05:01:26.280Z,45.53
2022-11-05T05:06:21.130Z,56.23
2022-11-05T05:11:14.950Z,48.23
2022-11-05T05:16:08.152Z,61.37
2022-11-05T05:21:18.526Z,56.63
2022-11-05T05:26:12.477Z,53.07
2022-11-05T05:31:05.080Z,62.57
2022-11-05T05:35:58.311Z,52.33
2022-11-05T05:40:50.949Z,48.80
2022-11-05T05:45:45.027Z,48.00
2022-11-05T05:50:37.635Z,50.70
2022-11-05T05:55:32.875Z,32.70
2022-11-05T06:00:25.463Z,29.33
2022-11-05T06:05:19.401Z,33.80
2022-11-05T06:10:12.067Z,31.00
2022-11-05T06:15:04.988Z,32.03
2022-11-05T06:19:57.599Z,30.83
2022-11-05T06:24:51.529Z,31.53
2022-11-05T06:29:44.121Z,30.13
2022-11-05T06:34:37.847Z,33.93
2022-11-05T06:39:30.415Z,30.73
2022-11-05T06:44:24.353Z,29.37
2022-11-05T06:49:16.926Z,23.93
2022-11-05T06:54:09.577Z,28.43
2022-11-05T06:59:02.303Z,23.27
2022-11-05T07:03:56.211Z,23.80
2022-11-05T07:08:48.839Z,22.90
2022-11-05T07:13:41.426Z,21.30
2022-11-05T07:18:34.002Z,18.20
2022-11-05T07:23:27.977Z,18.60
2022-11-05T07:28:20.571Z,21.90
2022-11-05T07:33:13.646Z,21.40
2022-11-05T07:38:06.617Z,18.53
2022-11-05T07:43:01.289Z,17.93
2022-11-05T07:47:54.523Z,17.83
2022-11-05T07:52:48.035Z,18.70
2022-11-05T07:57:44.022Z,21.67
2022-11-05T08:02:38.141Z,24.37
2022-11-05T08:07:30.857Z,23.67
2022-11-05T08:12:23.714Z,22.70
2022-11-05T08:17:18.544Z,24.43
2022-11-05T08:22:12.593Z,26.03
2022-11-05T08:27:05.141Z,32.20
2022-11-05T08:31:57.744Z,33.60
2022-11-05T08:36:50.337Z,30.73
2022-11-05T08:41:44.295Z,31.43
2022-11-05T08:46:41.444Z,28.10
2022-11-05T08:51:34.347Z,28.20
2022-11-05T08:56:26.936Z,32.30
2022-11-05T09:01:20.973Z,30.67
2022-11-05T09:06:14.534Z,28.27
2022-11-05T09:11:07.124Z,26.07
2022-11-05T09:16:00.173Z,25.70
2022-11-05T09:20:54.202Z,24.13
2022-11-05T09:25:47.173Z,26.97
2022-11-05T09:30:43.396Z,23.30
2022-11-05T09:35:35.990Z,30.20
2022-11-05T09:40:33.191Z,21.43
2022-11-05T09:45:28.068Z,24.83
2022-11-05T09:50:21.502Z,22.87
2022-11-05T09:55:19.916Z,21.50
2022-11-05T10:00:16.709Z,21.13
2022-11-05T10:05:12.494Z,19.83
2022-11-05T10:10:07.195Z,19.87
2022-11-05T10:15:06.254Z,18.53
2022-11-05T10:20:04.252Z,16.63
2022-11-05T10:24:57.064Z,18.40
2022-11-05T10:29:50.093Z,16.67
2022-11-05T10:34:43.100Z,18.83
2022-11-05T10:39:37.461Z,13.87
2022-11-05T10:44:33.297Z,19.33
2022-11-05T10:49:32.546Z,15.00
2022-11-05T10:54:27.574Z,15.03
2022-11-05T10:59:23.183Z,13.63
2022-11-05T11:04:17.904Z,14.87
2022-11-05T11:09:20.380Z,15.10
2022-11-05T11:14:20.940Z,13.53
2022-11-05T11:19:26.443Z,12.70
2022-11-05T11:24:23.074Z,17.50
2022-11-05T11:29:19.850Z,13.57
2022-11-05T11:34:17.567Z,15.63
2022-11-05T11:39:16.002Z,13.93
2022-11-05T11:44:09.443Z,18.77
2022-11-05T11:49:02.096Z,16.33
2022-11-05T11:53:57.281Z,17.97
2022-11-05T11:58:52.378Z,13.90
2022-11-05T12:03:48.383Z,16.13
2022-11-05T12:08:46.511Z,16.80
2022-11-05T12:13:48.652Z,22.23
2022-11-05T12:18:46.462Z,15.70
2022-11-05T12:23:45.229Z,19.60
2022-11-05T12:29:17.366Z,14.60
2022-11-05T12:34:15.926Z,10.47
2022-11-05T12:39:22.194Z,15.37
2022-11-05T12:44:18.619Z,14.70
2022-11-05T12:49:23.457Z,11.70
2022-11-05T12:54:21.518Z,15.57
2022-11-05T12:59:17.879Z,14.57
2022-11-05T13:04:14.513Z,17.00
2022-11-05T13:09:14.217Z,10.30
2022-11-05T13:14:09.895Z,10.50
2022-11-05T13:19:06.091Z,9.03
2022-11-05T13:24:02.350Z,7.20
2022-11-05T13:28:58.269Z,8.37
2022-11-05T13:33:52.181Z,9.33
2022-11-05T13:39:01.287Z,7.60
2022-11-05T13:44:08.388Z,10.53
2022-11-05T13:49:25.066Z,8.20
2022-11-05T13:54:33.286Z,10.93
2022-11-05T13:59:39.239Z,12.43
2022-11-05T14:04:34.304Z,9.10
2022-11-05T14:09:27.557Z,12.90
2022-11-05T14:14:21.939Z,12.47
2022-11-05T14:19:31.141Z,11.50
2022-11-05T14:24:38.622Z,11.40
2022-11-05T14:29:38.591Z,11.40
2022-11-05T14:34:47.015Z,11.20
2022-11-05T14:39:40.197Z,12.33
2022-11-05T14:44:34.487Z,10.10
2022-11-05T14:49:28.861Z,11.20
2022-11-05T14:54:24.442Z,15.70
2022-11-05T14:59:33.985Z,14.73
2022-11-05T15:04:28.361Z,12.87
2022-11-05T15:09:25.360Z,13.13
2022-11-05T15:14:21.064Z,19.83
2022-11-05T15:19:17.693Z,16.87
2022-11-05T15:24:11.753Z,20.60
2022-11-05T15:29:15.112Z,15.90
2022-11-05T15:34:16.287Z,16.77
2022-11-05T15:39:29.380Z,18.60
2022-11-05T15:44:30.475Z,15.73
2022-11-05T15:49:23.091Z,28.30
2022-11-05T15:54:30.366Z,20.70
2022-11-05T15:59:24.445Z,20.67
2022-11-05T16:04:20.457Z,26.33
2022-11-05T16:09:22.030Z,19.33
2022-11-05T16:14:15.988Z,20.63
2022-11-05T16:19:23.485Z,19.77
2022-11-05T16:24:29.224Z,22.53
2022-11-05T16:29:26.675Z,27.97
2022-11-05T16:34:25.903Z,24.87
2022-11-05T16:39:18.495Z,28.53
2022-11-05T16:44:12.468Z,30.77
2022-11-05T16:49:05.256Z,30.33
2022-11-05T16:53:57.811Z,31.53
2022-11-05T16:58:50.666Z,28.80
2022-11-05T17:03:45.055Z,24.90
2022-11-05T17:08:37.749Z,31.23
2022-11-05T17:13:30.633Z,23.80
2022-11-05T17:18:23.419Z,29.20
2022-11-05T17:23:18.384Z,26.00
2022-11-05T17:28:11.685Z,28.80
2022-11-05T17:33:05.088Z,25.87
2022-11-05T17:37:57.669Z,26.47
2022-11-05T17:42:52.510Z,26.07
2022-11-05T17:47:45.161Z,24.40
2022-11-05T17:52:37.992Z,26.57
2022-11-05T17:57:30.628Z,26.03
2022-11-05T18:02:27.760Z,30.83
2022-11-05T18:07:20.462Z,29.93
2022-11-05T18:12:13.048Z,32.90
2022-11-05T18:17:05.603Z,34.43
2022-11-05T18:21:59.533Z,33.60
2022-11-05T18:26:52.112Z,28.63
2022-11-05T18:31:44.661Z,33.07
2022-11-05T18:36:37.451Z,33.17
2022-11-05T18:41:31.580Z,31.13
2022-11-05T18:46:56.015Z,30.17
2022-11-05T18:51:36.691Z,22.53
2022-11-05T18:56:29.289Z,26.23
2022-11-05T19:01:26.480Z,31.30
2022-11-05T19:06:19.146Z,29.67
2022-11-05T19:11:12.427Z,28.53
2022-11-05T19:16:07.196Z,28.47
2022-11-05T19:21:01.212Z,25.27
2022-11-05T19:25:53.830Z,24.73
2022-11-05T19:30:46.462Z,20.07
2022-11-05T19:35:41.506Z,24.60
2022-11-05T19:40:37.204Z,22.00
2022-11-05T19:45:44.012Z,28.43
2022-11-05T19:50:41.375Z,29.63
2022-11-05T19:55:35.376Z,26.60
2022-11-05T20:00:28.019Z,25.77
2022-11-05T20:05:20.685Z,24.50
2022-11-05T20:10:13.355Z,21.00
2022-11-05T20:15:08.158Z,18.90
2022-11-05T20:20:01.155Z,22.77
2022-11-05T20:24:53.887Z,19.53
2022-11-05T20:29:46.497Z,20.80
2022-11-05T20:34:40.586Z,20.53
2022-11-05T20:39:33.151Z,18.93
2022-11-05T20:44:25.730Z,22.17
2022-11-05T20:49:24.053Z,20.37
2022-11-05T20:54:19.199Z,16.77
2022-11-05T20:59:11.787Z,19.57
2022-11-05T21:04:04.948Z,21.80
2022-11-05T21:08:57.508Z,53.60
2022-11-05T21:13:51.446Z,25.20
2022-11-05T21:18:44.050Z,19.90
2022-11-05T21:23:36.793Z,18.37
2022-11-05T21:28:29.539Z,19.53
2022-11-05T21:33:23.495Z,24.00
2022-11-05T21:38:17.236Z,17.43
2022-11-05T21:43:10.207Z,48.53
2022-11-05T21:48:02.816Z,26.97
2022-11-05T21:53:14.232Z,19.63
2022-11-05T21:58:30.295Z,43.27
2022-11-05T22:03:22.919Z,56.07
2022-11-05T22:08:16.843Z,45.43
2022-11-05T22:13:09.412Z,34.60
2022-11-05T22:18:02.138Z,16.10
2022-11-05T22:22:55.109Z,17.77
2022-11-05T22:27:49.134Z,17.60
2022-11-05T22:32:41.859Z,12.97
2022-11-05T22:37:34.459Z,15.67
2022-11-05T22:42:27.256Z,16.80
2022-11-05T22:47:21.278Z,15.80
2022-11-05T22:52:13.940Z,15.20
2022-11-05T22:57:06.763Z,13.67
2022-11-05T23:02:01.880Z,13.10
2022-11-05T23:07:16.801Z,11.80
2022-11-05T23:12:19.171Z,11.37
2022-11-05T23:17:29.516Z,15.87
2022-11-05T23:22:41.945Z,22.57
2022-11-05T23:27:35.990Z,23.53
2022-11-05T23:32:31.146Z,13.50
2022-11-05T23:37:43.535Z,13.07
2022-11-05T23:42:53.732Z,15.47
2022-11-05T23:48:04.052Z,11.70
2022-11-05T23:52:58.091Z,11.57
2022-11-05T23:57:50.960Z,9.93
